Time;durP1;ratioP1;P1;durP2;ratioP2;P2;SDS_P1;SDS_P2;PMS_P1;PMS_P2;Temp;Humidity;BMP_temperature;BMP_pressure;BME280_temperature;BME280_humidity;BME280_pressure;Samples;Min_cycle;Max_cycle;Signal;HPM_P1;HPM_P2
2023/04/07 00:01:42;;;;;;;;;;;18.20;49.00;;;;;;6196285;28;19929;-69
2023/04/07 00:04:43;;;;;;;;;;;18.20;48.80;;;;;;6195950;28;19914;-68
2023/04/07 00:07:44;;;;;;;;;;;18.20;49.00;;;;;;6178871;28;19937;-69
2023/04/07 00:10:44;;;;;;;;;;;18.20;48.70;;;;;;6179052;28;19957;-68
2023/04/07 00:13:45;;;;;;;;;;;18.20;48.90;;;;;;6195872;28;19913;-68
2023/04/07 00:16:46;;;;;;;;;;;18.20;48.70;;;;;;6195905;28;20324;-68
2023/04/07 00:19:47;;;;;;;;;;;18.20;48.90;;;;;;6195711;28;19969;-68
2023/04/07 00:22:47;;;;;;;;;;;18.20;49.00;;;;;;6196028;28;19953;-69
2023/04/07 00:25:48;;;;;;;;;;;18.20;49.00;;;;;;6195631;28;19921;-68
2023/04/07 00:28:49;;;;;;;;;;;18.20;48.60;;;;;;6195708;28;19980;-69
2023/04/07 00:31:49;;;;;;;;;;;18.20;48.70;;;;;;6177958;28;20284;-68
2023/04/07 00:34:50;;;;;;;;;;;18.20;49.00;;;;;;6195573;28;19914;-68
2023/04/07 00:37:51;;;;;;;;;;;18.20;48.70;;;;;;6195407;28;19917;-70
2023/04/07 00:40:58;;;;;;;;;;;18.20;48.90;;;;;;6195497;28;19917;-68
2023/04/07 00:43:59;;;;;;;;;;;18.20;49.10;;;;;;6195471;28;19914;-70
2023/04/07 00:47:00;;;;;;;;;;;18.20;48.80;;;;;;6178021;28;19918;-68
2023/04/07 00:50:02;;;;;;;;;;;18.20;48.90;;;;;;6177998;28;19910;-69
2023/04/07 00:53:03;;;;;;;;;;;18.20;49.10;;;;;;6195534;28;19910;-69
2023/04/07 00:56:04;;;;;;;;;;;18.20;49.80;;;;;;6195367;28;19913;-68
2023/04/07 00:59:04;;;;;;;;;;;18.20;48.70;;;;;;6172829;28;19929;-69
2023/04/07 01:02:24;;;;;;;;;;;18.20;49.00;;;;;;6171632;28;19910;-69
2023/04/07 01:05:45;;;;;;;;;;;18.20;49.00;;;;;;6170882;28;19918;-68
2023/04/07 01:08:58;;;;;;;;;;;18.20;48.90;;;;;;6170621;28;20297;-69
2023/04/07 01:12:04;;;;;;;;;;;18.20;48.90;;;;;;6154035;28;19963;-69
2023/04/07 01:15:08;;;;;;;;;;;18.20;49.00;;;;;;6170909;28;19910;-68
2023/04/07 01:18:14;;;;;;;;;;;18.20;49.00;;;;;;6153851;28;19914;-68
2023/04/07 01:21:16;;;;;;;;;;;18.20;48.70;;;;;;6171127;28;19914;-69
2023/04/07 01:24:22;;;;;;;;;;;18.20;48.70;;;;;;6153558;28;19911;-69
2023/04/07 01:27:29;;;;;;;;;;;18.20;49.00;;;;;;6171443;28;20336;-69
2023/04/07 01:30:34;;;;;;;;;;;18.20;49.10;;;;;;6170836;28;19914;-68
2023/04/07 01:33:36;;;;;;;;;;;18.20;49.10;;;;;;6145309;29;19918;-68
2023/04/07 01:36:36;;;;;;;;;;;18.20;48.90;;;;;;6167026;28;20336;-69
2023/04/07 01:39:37;;;;;;;;;;;18.20;49.00;;;;;;6171122;28;19910;-69
2023/04/07 01:42:38;;;;;;;;;;;18.20;48.70;;;;;;6170816;28;19911;-70
2023/04/07 01:45:40;;;;;;;;;;;18.20;48.90;;;;;;6170682;28;19969;-68
2023/04/07 01:48:41;;;;;;;;;;;18.20;48.90;;;;;;6170404;28;20266;-69
2023/04/07 01:51:43;;;;;;;;;;;18.20;48.80;;;;;;6171966;28;19918;-68
2023/04/07 01:54:44;;;;;;;;;;;18.20;49.10;;;;;;6168923;28;20004;-68
2023/04/07 01:57:44;;;;;;;;;;;18.20;49.20;;;;;;6175488;28;20281;-68
2023/04/07 02:00:45;;;;;;;;;;;18.20;49.20;;;;;;6173609;28;20001;-68
2023/04/07 02:04:01;;;;;;;;;;;18.20;49.00;;;;;;6175389;28;19910;-69
2023/04/07 02:07:05;;;;;;;;;;;18.20;49.20;;;;;;6175099;28;19925;-68
2023/04/07 02:10:07;;;;;;;;;;;18.20;49.20;;;;;;6149566;29;19914;-69
2023/04/07 02:13:09;;;;;;;;;;;18.20;49.20;;;;;;6153247;28;19917;-69
2023/04/07 02:16:11;;;;;;;;;;;18.20;49.10;;;;;;6157558;28;19914;-70
2023/04/07 02:19:12;;;;;;;;;;;18.20;49.00;;;;;;6174783;28;19917;-68
2023/04/07 02:22:14;;;;;;;;;;;18.20;49.20;;;;;;6174524;28;20556;-71
2023/04/07 02:25:20;;;;;;;;;;;18.20;49.10;;;;;;6174530;28;19925;-68
2023/04/07 02:28:21;;;;;;;;;;;18.20;49.20;;;;;;6174429;28;19911;-68
2023/04/07 02:31:22;;;;;;;;;;;18.20;49.00;;;;;;6174748;28;20000;-68
2023/04/07 02:34:22;;;;;;;;;;;18.20;49.10;;;;;;6174492;28;19917;-68
2023/04/07 02:37:23;;;;;;;;;;;18.20;49.20;;;;;;6174367;28;19964;-67
2023/04/07 02:40:23;;;;;;;;;;;18.20;49.00;;;;;;6174193;28;19910;-68
2023/04/07 02:43:24;;;;;;;;;;;18.20;49.10;;;;;;6174195;28;19910;-68
2023/04/07 02:46:24;;;;;;;;;;;18.20;49.20;;;;;;6174218;28;19918;-68
2023/04/07 02:49:25;;;;;;;;;;;18.20;48.90;;;;;;6174381;28;19920;-69
2023/04/07 02:52:25;;;;;;;;;;;18.20;49.20;;;;;;6156439;28;20026;-69
2023/04/07 02:55:26;;;;;;;;;;;18.20;49.20;;;;;;6156240;28;20183;-68
2023/04/07 02:58:27;;;;;;;;;;;18.20;49.10;;;;;;6156160;28;19914;-69
2023/04/07 03:01:27;;;;;;;;;;;18.20;49.20;;;;;;6179899;28;19928;-69
2023/04/07 03:04:28;;;;;;;;;;;18.20;49.20;;;;;;6178871;28;19914;-69
2023/04/07 03:07:30;;;;;;;;;;;18.20;49.00;;;;;;6196162;28;19914;-69
2023/04/07 03:10:31;;;;;;;;;;;18.20;49.10;;;;;;6197590;28;19918;-69
2023/04/07 03:13:31;;;;;;;;;;;18.20;49.00;;;;;;6196045;28;19917;-68
2023/04/07 03:16:32;;;;;;;;;;;18.20;49.10;;;;;;6196128;28;19917;-69
2023/04/07 03:19:32;;;;;;;;;;;18.20;49.70;;;;;;6197453;28;20318;-69
2023/04/07 03:22:33;;;;;;;;;;;18.20;49.20;;;;;;6179922;28;19910;-69
2023/04/07 03:25:34;;;;;;;;;;;18.20;49.10;;;;;;6179291;28;19917;-69
2023/04/07 03:28:35;;;;;;;;;;;18.20;49.20;;;;;;6179349;28;19914;-69
2023/04/07 03:31:36;;;;;;;;;;;18.20;49.20;;;;;;6197189;28;19945;-69
2023/04/07 03:34:37;;;;;;;;;;;18.20;49.00;;;;;;6179367;28;20337;-69
2023/04/07 03:37:37;;;;;;;;;;;18.20;49.20;;;;;;6179534;28;19918;-69
2023/04/07 03:40:38;;;;;;;;;;;18.20;49.00;;;;;;6196734;28;20005;-68
2023/04/07 03:43:38;;;;;;;;;;;18.20;49.00;;;;;;6196496;28;19973;-69
2023/04/07 03:46:39;;;;;;;;;;;18.20;49.10;;;;;;6179121;28;19924;-68
2023/04/07 03:49:40;;;;;;;;;;;18.20;49.10;;;;;;6196418;28;19910;-69
2023/04/07 03:52:40;;;;;;;;;;;18.20;49.20;;;;;;6196749;28;19964;-69
2023/04/07 03:55:41;;;;;;;;;;;18.20;49.00;;;;;;6178849;28;19968;-69
2023/04/07 03:58:43;;;;;;;;;;;18.20;49.20;;;;;;6196736;28;19969;-69
2023/04/07 04:01:43;;;;;;;;;;;18.20;49.00;;;;;;6196041;28;20258;-69
2023/04/07 04:04:44;;;;;;;;;;;18.20;48.80;;;;;;6196105;28;19982;-69
2023/04/07 04:07:44;;;;;;;;;;;18.20;49.10;;;;;;6196353;28;19918;-69
2023/04/07 04:10:45;;;;;;;;;;;18.20;49.10;;;;;;6196510;28;19910;-68
2023/04/07 04:13:46;;;;;;;;;;;18.20;49.20;;;;;;6178060;28;19910;-69
2023/04/07 04:16:46;;;;;;;;;;;18.20;48.90;;;;;;6195856;28;19949;-69
2023/04/07 04:19:47;;;;;;;;;;;18.20;49.10;;;;;;6195830;28;19917;-69
2023/04/07 04:22:47;;;;;;;;;;;18.20;49.20;;;;;;6178676;28;19916;-69
2023/04/07 04:25:48;;;;;;;;;;;18.20;49.20;;;;;;6183455;28;19920;-69
2023/04/07 04:28:48;;;;;;;;;;;18.20;49.30;;;;;;6195947;28;20061;-69
2023/04/07 04:31:49;;;;;;;;;;;18.20;49.20;;;;;;6195693;28;19918;-68
2023/04/07 04:34:50;;;;;;;;;;;18.20;49.10;;;;;;6195783;28;20005;-67
2023/04/07 04:37:50;;;;;;;;;;;18.20;49.20;;;;;;6178629;28;19946;-68
2023/04/07 04:40:51;;;;;;;;;;;18.20;49.20;;;;;;6195959;28;20383;-71
2023/04/07 04:43:51;;;;;;;;;;;18.20;49.20;;;;;;6195639;28;19982;-68
2023/04/07 04:46:53;;;;;;;;;;;18.20;49.30;;;;;;6195607;28;19913;-70
2023/04/07 04:49:53;;;;;;;;;;;18.20;49.20;;;;;;6178186;28;19910;-70
2023/04/07 04:52:54;;;;;;;;;;;18.20;48.90;;;;;;6195585;28;19969;-68
2023/04/07 04:55:54;;;;;;;;;;;18.20;49.30;;;;;;6195307;28;19910;-68
2023/04/07 04:58:55;;;;;;;;;;;18.20;49.20;;;;;;6195397;28;20304;-68
2023/04/07 05:01:56;;;;;;;;;;;18.20;49.10;;;;;;6177563;28;19913;-68
2023/04/07 05:04:57;;;;;;;;;;;18.20;49.20;;;;;;6195114;28;19920;-68
2023/04/07 05:07:57;;;;;;;;;;;18.20;49.20;;;;;;6195294;28;19910;-69
2023/04/07 05:10:58;;;;;;;;;;;18.20;49.20;;;;;;6195254;28;20351;-70
2023/04/07 05:13:59;;;;;;;;;;;18.20;49.20;;;;;;6194997;28;19910;-69
2023/04/07 05:17:00;;;;;;;;;;;18.20;48.90;;;;;;6195190;28;19910;-68
2023/04/07 05:20:01;;;;;;;;;;;18.20;49.00;;;;;;6195462;28;19940;-68
2023/04/07 05:23:01;;;;;;;;;;;18.20;49.20;;;;;;6195064;28;19917;-69
2023/04/07 05:26:02;;;;;;;;;;;18.20;49.20;;;;;;6195051;28;19965;-68
2023/04/07 05:29:02;;;;;;;;;;;18.20;48.70;;;;;;6200096;28;19921;-68
2023/04/07 05:32:04;;;;;;;;;;;18.20;49.20;;;;;;6200523;28;19914;-68
2023/04/07 05:35:05;;;;;;;;;;;18.20;49.30;;;;;;6200074;28;19909;-69
2023/04/07 05:38:05;;;;;;;;;;;18.20;49.20;;;;;;6182456;28;20357;-68
2023/04/07 05:41:06;;;;;;;;;;;18.20;49.30;;;;;;6199872;28;19917;-69
2023/04/07 05:44:06;;;;;;;;;;;18.20;49.20;;;;;;6199590;28;19910;-69
2023/04/07 05:47:08;;;;;;;;;;;18.20;49.20;;;;;;6199777;28;19914;-68
2023/04/07 05:50:09;;;;;;;;;;;18.20;49.10;;;;;;6199739;28;20384;-68
2023/04/07 05:53:09;;;;;;;;;;;18.20;49.00;;;;;;6181921;28;19913;-69
2023/04/07 05:56:10;;;;;;;;;;;18.20;49.20;;;;;;6182358;28;19993;-68
2023/04/07 05:59:10;;;;;;;;;;;18.20;49.30;;;;;;6199590;28;20455;-68
2023/04/07 06:02:11;;;;;;;;;;;18.20;49.10;;;;;;6202564;28;19917;-68
2023/04/07 06:05:12;;;;;;;;;;;18.20;49.10;;;;;;6201508;28;20403;-69
2023/04/07 06:08:12;;;;;;;;;;;18.20;49.20;;;;;;6201168;28;19910;-67
2023/04/07 06:11:13;;;;;;;;;;;18.20;48.90;;;;;;6183216;28;19917;-67
2023/04/07 06:14:14;;;;;;;;;;;18.20;48.80;;;;;;6200730;28;19922;-67
2023/04/07 06:17:14;;;;;;;;;;;18.20;49.10;;;;;;6200450;28;20302;-67
2023/04/07 06:20:15;;;;;;;;;;;18.20;49.20;;;;;;6183278;28;19933;-67
2023/04/07 06:23:15;;;;;;;;;;;18.20;49.00;;;;;;6200242;28;19918;-69
2023/04/07 06:26:16;;;;;;;;;;;18.20;49.20;;;;;;6201062;28;19914;-68
2023/04/07 06:29:17;;;;;;;;;;;18.20;48.90;;;;;;6200774;28;19910;-69
2023/04/07 06:32:19;;;;;;;;;;;18.20;49.20;;;;;;6201249;28;20018;-67
2023/04/07 06:35:19;;;;;;;;;;;18.20;49.10;;;;;;6182937;28;19914;-69
2023/04/07 06:38:20;;;;;;;;;;;18.20;49.20;;;;;;6182798;28;19964;-69
2023/04/07 06:41:21;;;;;;;;;;;18.20;49.20;;;;;;6200111;28;19910;-69
2023/04/07 06:44:21;;;;;;;;;;;18.20;49.10;;;;;;6200303;28;19932;-69
2023/04/07 06:47:23;;;;;;;;;;;18.20;49.20;;;;;;6200129;28;19910;-69
2023/04/07 06:50:23;;;;;;;;;;;18.20;49.10;;;;;;6182886;28;19917;-69
2023/04/07 06:53:24;;;;;;;;;;;18.20;49.30;;;;;;6200046;28;19956;-69
2023/04/07 06:56:25;;;;;;;;;;;18.20;49.00;;;;;;6182410;28;19909;-69
2023/04/07 06:59:26;;;;;;;;;;;18.20;49.20;;;;;;6174746;28;19981;-69
2023/04/07 07:02:26;;;;;;;;;;;18.20;48.90;;;;;;6158370;28;20310;-70
2023/04/07 07:05:27;;;;;;;;;;;18.20;49.00;;;;;;6149851;29;19921;-70
2023/04/07 07:08:28;;;;;;;;;;;18.20;48.80;;;;;;6134609;29;19963;-69
2023/04/07 07:11:29;;;;;;;;;;;18.20;49.00;;;;;;6151659;29;20479;-69
2023/04/07 07:14:29;;;;;;;;;;;18.20;49.20;;;;;;6151602;29;19915;-69
2023/04/07 07:17:30;;;;;;;;;;;18.20;49.10;;;;;;6151138;29;19921;-69
2023/04/07 07:20:31;;;;;;;;;;;18.20;49.10;;;;;;6156447;28;19914;-69
2023/04/07 07:23:32;;;;;;;;;;;18.20;48.80;;;;;;6173669;28;19953;-69
2023/04/07 07:26:33;;;;;;;;;;;18.20;49.20;;;;;;6174151;28;19918;-70
2023/04/07 07:29:34;;;;;;;;;;;18.20;49.20;;;;;;6174807;28;19982;-69
2023/04/07 07:32:34;;;;;;;;;;;18.20;49.20;;;;;;6157952;28;19941;-69
2023/04/07 07:35:36;;;;;;;;;;;18.20;49.20;;;;;;6174732;28;19921;-69
2023/04/07 07:38:39;;;;;;;;;;;18.20;48.90;;;;;;6157721;28;20289;-68
2023/04/07 07:41:40;;;;;;;;;;;18.20;49.10;;;;;;6174740;28;19914;-70
2023/04/07 07:44:41;;;;;;;;;;;18.20;49.20;;;;;;6174497;28;19938;-70
2023/04/07 07:47:41;;;;;;;;;;;18.20;49.20;;;;;;6174875;28;19918;-69
2023/04/07 07:50:43;;;;;;;;;;;18.20;49.20;;;;;;6173979;28;20326;-69
2023/04/07 07:53:44;;;;;;;;;;;18.10;49.20;;;;;;6174258;28;19993;-68
2023/04/07 07:56:45;;;;;;;;;;;18.20;49.20;;;;;;6174667;28;19914;-69
2023/04/07 07:59:45;;;;;;;;;;;18.20;49.20;;;;;;6167015;28;19945;-70
2023/04/07 08:02:46;;;;;;;;;;;18.20;48.90;;;;;;6198151;28;20281;-69
2023/04/07 08:05:47;;;;;;;;;;;18.10;49.00;;;;;;6180388;28;19914;-69
2023/04/07 08:08:48;;;;;;;;;;;18.10;49.20;;;;;;6198040;28;19910;-69
2023/04/07 08:11:48;;;;;;;;;;;18.20;49.20;;;;;;6198206;28;20020;-69
2023/04/07 08:14:49;;;;;;;;;;;18.20;48.90;;;;;;6198165;28;20028;-69
2023/04/07 08:17:50;;;;;;;;;;;18.20;48.90;;;;;;6198125;28;19917;-69
2023/04/07 08:20:50;;;;;;;;;;;18.20;49.00;;;;;;6180661;28;19910;-69
2023/04/07 08:23:52;;;;;;;;;;;18.20;48.90;;;;;;6197802;28;19996;-69
2023/04/07 08:26:52;;;;;;;;;;;18.20;49.90;;;;;;6197598;28;19918;-69
2023/04/07 08:30:00;;;;;;;;;;;18.20;48.80;;;;;;6197783;28;19913;-69
2023/04/07 08:33:00;;;;;;;;;;;18.20;49.00;;;;;;6197248;28;19913;-69
2023/04/07 08:36:01;;;;;;;;;;;18.10;49.10;;;;;;6180294;28;19913;-68
2023/04/07 08:39:04;;;;;;;;;;;18.10;49.20;;;;;;6179606;28;19913;-69
2023/04/07 08:42:06;;;;;;;;;;;18.20;49.00;;;;;;6172016;28;19934;-69
2023/04/07 08:45:07;;;;;;;;;;;18.20;49.10;;;;;;6172813;28;19970;-69
2023/04/07 08:48:13;;;;;;;;;;;18.20;49.10;;;;;;6173555;28;19914;-70
2023/04/07 08:51:14;;;;;;;;;;;18.20;49.10;;;;;;6155839;28;19914;-69
2023/04/07 08:54:17;;;;;;;;;;;18.20;48.90;;;;;;6155774;28;19955;-70
2023/04/07 08:57:21;;;;;;;;;;;18.20;49.10;;;;;;6179733;28;20394;-69
2023/04/07 09:00:22;;;;;;;;;;;18.20;48.80;;;;;;6180251;28;19922;-69
2023/04/07 09:03:23;;;;;;;;;;;18.20;49.00;;;;;;6180215;28;19940;-69
2023/04/07 09:06:24;;;;;;;;;;;18.10;48.70;;;;;;6196969;28;19914;-69
2023/04/07 09:09:25;;;;;;;;;;;18.20;48.80;;;;;;6179748;28;19997;-69
2023/04/07 09:12:26;;;;;;;;;;;18.10;48.80;;;;;;6195422;28;19920;-69
2023/04/07 09:15:30;;;;;;;;;;;18.20;49.00;;;;;;6196748;28;20461;-69
2023/04/07 09:18:31;;;;;;;;;;;18.20;49.00;;;;;;6197026;28;20372;-69
2023/04/07 09:21:52;;;;;;;;;;;18.20;48.60;;;;;;6196786;28;19917;-70
2023/04/07 09:24:53;;;;;;;;;;;18.20;48.90;;;;;;6194982;28;20541;-70
2023/04/07 09:27:53;;;;;;;;;;;18.20;48.70;;;;;;6195893;28;19910;-69
2023/04/07 09:30:54;;;;;;;;;;;18.20;48.60;;;;;;6196857;28;19910;-70
2023/04/07 09:33:55;;;;;;;;;;;18.20;48.80;;;;;;6195657;28;19917;-69
2023/04/07 09:36:56;;;;;;;;;;;18.20;48.90;;;;;;6196537;28;20000;-69
2023/04/07 09:39:59;;;;;;;;;;;18.10;48.80;;;;;;6195281;28;20325;-70
2023/04/07 09:43:00;;;;;;;;;;;18.20;48.70;;;;;;6195120;28;19913;-69
2023/04/07 09:46:12;;;;;;;;;;;18.20;48.60;;;;;;6196554;28;19927;-69
2023/04/07 09:49:13;;;;;;;;;;;18.10;48.90;;;;;;6196523;28;19952;-70
2023/04/07 09:52:13;;;;;;;;;;;18.20;48.90;;;;;;6178596;28;19910;-69
2023/04/07 09:55:14;;;;;;;;;;;18.20;48.70;;;;;;6178724;28;19957;-70
2023/04/07 09:58:15;;;;;;;;;;;18.20;48.90;;;;;;6178890;28;19941;-69
2023/04/07 10:01:16;;;;;;;;;;;18.20;48.50;;;;;;6156795;28;20019;-71
2023/04/07 10:04:17;;;;;;;;;;;18.10;48.30;;;;;;6172178;28;19918;-69
2023/04/07 10:07:18;;;;;;;;;;;18.10;48.80;;;;;;6170909;28;19968;-69
2023/04/07 10:10:19;;;;;;;;;;;18.20;48.80;;;;;;6172111;28;20395;-69
2023/04/07 10:13:20;;;;;;;;;;;18.10;48.60;;;;;;6156502;28;19970;-69
2023/04/07 10:16:21;;;;;;;;;;;18.10;48.80;;;;;;6176235;28;19922;-69
2023/04/07 10:19:23;;;;;;;;;;;18.20;48.60;;;;;;6176783;28;20001;-69
2023/04/07 10:22:25;;;;;;;;;;;18.10;48.80;;;;;;6176361;28;19916;-70
2023/04/07 10:25:26;;;;;;;;;;;18.10;48.10;;;;;;6176341;28;19942;-69
2023/04/07 10:28:29;;;;;;;;;;;18.20;48.80;;;;;;6176467;28;19918;-70
2023/04/07 10:31:30;;;;;;;;;;;18.10;48.70;;;;;;6176658;28;19930;-69
2023/04/07 10:34:47;;;;;;;;;;;18.10;48.50;;;;;;6158774;28;19914;-69
2023/04/07 10:38:15;;;;;;;;;;;18.10;48.80;;;;;;6158988;28;20369;-69
2023/04/07 10:41:45;;;;;;;;;;;18.10;48.60;;;;;;6172717;28;19917;-69
2023/04/07 10:44:48;;;;;;;;;;;18.20;48.90;;;;;;6159072;28;20073;-69
2023/04/07 10:47:58;;;;;;;;;;;18.10;48.50;;;;;;6174489;28;19914;-69
2023/04/07 10:51:05;;;;;;;;;;;18.20;48.70;;;;;;6175622;28;20284;-70
2023/04/07 10:54:19;;;;;;;;;;;18.20;48.50;;;;;;6175288;28;19917;-69
2023/04/07 10:57:22;;;;;;;;;;;18.10;48.70;;;;;;6175698;28;20058;-70
2023/04/07 11:00:23;;;;;;;;;;;18.10;48.60;;;;;;6190408;28;20357;-69
2023/04/07 11:03:24;;;;;;;;;;;18.10;48.50;;;;;;6198120;28;19910;-69
2023/04/07 11:06:25;;;;;;;;;;;18.20;48.70;;;;;;6181952;28;20391;-68
2023/04/07 11:09:26;;;;;;;;;;;18.10;48.80;;;;;;6199482;28;19994;-68
2023/04/07 11:12:27;;;;;;;;;;;18.10;48.80;;;;;;6199457;28;19918;-69
2023/04/07 11:15:27;;;;;;;;;;;18.10;48.80;;;;;;6198961;28;19914;-69
2023/04/07 11:18:28;;;;;;;;;;;18.10;48.40;;;;;;6199288;28;19910;-69
2023/04/07 11:21:29;;;;;;;;;;;18.20;48.90;;;;;;6199343;28;19910;-68
2023/04/07 11:24:33;;;;;;;;;;;18.10;48.90;;;;;;6198154;28;19920;-69
2023/04/07 11:27:33;;;;;;;;;;;18.20;48.90;;;;;;6199067;28;20053;-69
2023/04/07 11:30:35;;;;;;;;;;;18.20;48.80;;;;;;6198735;28;19914;-69
2023/04/07 11:33:37;;;;;;;;;;;18.20;48.80;;;;;;6180961;28;20028;-69
2023/04/07 11:36:38;;;;;;;;;;;18.10;48.50;;;;;;6198709;28;19914;-69
2023/04/07 11:39:39;;;;;;;;;;;18.10;48.50;;;;;;6173353;28;19946;-69
2023/04/07 11:42:40;;;;;;;;;;;18.10;48.60;;;;;;6178982;28;20352;-69
2023/04/07 11:45:41;;;;;;;;;;;18.10;48.90;;;;;;6181063;28;20360;-69
2023/04/07 11:48:42;;;;;;;;;;;18.20;48.90;;;;;;6198059;28;19910;-69
2023/04/07 11:51:44;;;;;;;;;;;18.10;48.70;;;;;;6198651;28;19909;-69
2023/04/07 11:54:51;;;;;;;;;;;18.10;48.70;;;;;;6198162;28;19910;-69
2023/04/07 11:57:52;;;;;;;;;;;18.10;48.60;;;;;;6198428;28;19914;-69
2023/04/07 12:00:56;;;;;;;;;;;18.20;49.00;;;;;;6197073;28;20214;-69
2023/04/07 12:03:57;;;;;;;;;;;18.10;49.00;;;;;;6198533;28;19936;-69
2023/04/07 12:07:08;;;;;;;;;;;18.10;48.80;;;;;;6180366;28;19925;-69
2023/04/07 12:10:19;;;;;;;;;;;18.10;48.70;;;;;;6198212;28;20001;-69
2023/04/07 12:13:19;;;;;;;;;;;18.10;48.90;;;;;;6198970;28;19914;-68
2023/04/07 12:16:20;;;;;;;;;;;18.10;48.90;;;;;;6197771;28;19926;-68
2023/04/07 12:19:25;;;;;;;;;;;18.10;48.80;;;;;;6181976;28;19910;-68
2023/04/07 12:22:26;;;;;;;;;;;18.10;48.90;;;;;;6181416;28;19916;-68
2023/04/07 12:25:26;;;;;;;;;;;18.20;49.30;;;;;;6181285;28;20004;-68
2023/04/07 12:28:27;;;;;;;;;;;18.10;49.00;;;;;;6198617;28;19914;-68
2023/04/07 12:31:27;;;;;;;;;;;18.10;48.80;;;;;;6198729;28;20109;-68
2023/04/07 12:34:28;;;;;;;;;;;18.10;48.90;;;;;;6198795;28;19917;-68
2023/04/07 12:37:28;;;;;;;;;;;18.10;48.80;;;;;;6181344;28;19979;-68
2023/04/07 12:40:31;;;;;;;;;;;18.10;48.80;;;;;;6198834;28;19921;-68
2023/04/07 12:43:31;;;;;;;;;;;18.10;48.90;;;;;;6198561;28;19910;-68
2023/04/07 12:46:32;;;;;;;;;;;18.10;48.90;;;;;;6196912;28;20020;-68
2023/04/07 12:49:32;;;;;;;;;;;18.10;48.70;;;;;;6197133;28;19938;-68
2023/04/07 12:52:33;;;;;;;;;;;18.10;48.90;;;;;;6180721;28;19910;-68
2023/04/07 12:55:34;;;;;;;;;;;18.10;49.10;;;;;;6198343;28;19910;-68
2023/04/07 12:58:35;;;;;;;;;;;18.10;49.00;;;;;;6180630;28;20000;-68
2023/04/07 13:01:36;;;;;;;;;;;18.10;48.90;;;;;;6198301;28;19997;-68
2023/04/07 13:04:39;;;;;;;;;;;18.10;48.70;;;;;;6197954;28;20298;-68
2023/04/07 13:07:40;;;;;;;;;;;18.10;49.10;;;;;;6181022;28;19920;-67
2023/04/07 13:10:41;;;;;;;;;;;18.10;49.00;;;;;;6197175;28;19917;-68
2023/04/07 13:13:42;;;;;;;;;;;18.10;49.00;;;;;;6180640;28;20000;-68
2023/04/07 13:16:42;;;;;;;;;;;18.20;48.80;;;;;;6198632;28;19913;-68
2023/04/07 13:19:45;;;;;;;;;;;18.10;49.00;;;;;;6180384;28;19909;-67
2023/04/07 13:22:46;;;;;;;;;;;18.10;49.00;;;;;;6180600;28;19909;-68
2023/04/07 13:25:47;;;;;;;;;;;18.10;49.70;;;;;;6197695;28;19944;-68
2023/04/07 13:28:48;;;;;;;;;;;18.10;48.80;;;;;;6197816;28;19949;-68
2023/04/07 13:31:48;;;;;;;;;;;18.10;48.60;;;;;;6180146;28;19914;-68
2023/04/07 13:34:49;;;;;;;;;;;18.10;48.90;;;;;;6180172;28;19910;-68
2023/04/07 13:37:49;;;;;;;;;;;18.10;49.00;;;;;;6197622;28;19913;-68
2023/04/07 13:40:50;;;;;;;;;;;18.10;49.00;;;;;;6197618;28;20054;-68
2023/04/07 13:43:51;;;;;;;;;;;18.10;48.90;;;;;;6197622;28;19910;-68
2023/04/07 13:46:52;;;;;;;;;;;18.10;49.10;;;;;;6197578;28;20009;-68
2023/04/07 13:49:53;;;;;;;;;;;18.10;48.90;;;;;;6184720;28;19913;-68
2023/04/07 13:52:53;;;;;;;;;;;18.10;49.00;;;;;;6202487;28;19986;-67
2023/04/07 13:55:54;;;;;;;;;;;18.20;49.00;;;;;;6202144;28;19910;-68
2023/04/07 13:58:54;;;;;;;;;;;18.10;48.70;;;;;;6202178;28;19925;-68
2023/04/07 14:01:55;;;;;;;;;;;18.10;48.80;;;;;;6202442;28;19965;-68
2023/04/07 14:04:56;;;;;;;;;;;18.10;49.10;;;;;;6202509;28;19992;-68
2023/04/07 14:07:56;;;;;;;;;;;18.10;48.90;;;;;;6202242;28;19910;-68
2023/04/07 14:10:57;;;;;;;;;;;18.10;48.90;;;;;;6202576;28;19966;-68
2023/04/07 14:13:57;;;;;;;;;;;18.10;49.10;;;;;;6202008;28;19964;-68
2023/04/07 14:16:58;;;;;;;;;;;18.10;48.80;;;;;;6202095;28;19946;-68
2023/04/07 14:19:58;;;;;;;;;;;18.10;49.00;;;;;;6184438;28;20118;-67
2023/04/07 14:23:00;;;;;;;;;;;18.10;49.00;;;;;;6201846;28;19921;-68
2023/04/07 14:26:01;;;;;;;;;;;18.10;49.10;;;;;;6184364;28;20371;-68
2023/04/07 14:29:01;;;;;;;;;;;18.10;49.00;;;;;;6201885;28;19957;-68
2023/04/07 14:32:02;;;;;;;;;;;18.10;48.80;;;;;;6201772;28;19917;-68
2023/04/07 14:35:02;;;;;;;;;;;18.10;48.70;;;;;;6201811;28;19910;-68
2023/04/07 14:38:03;;;;;;;;;;;18.10;49.00;;;;;;6201414;28;20336;-68
2023/04/07 14:41:04;;;;;;;;;;;18.10;48.90;;;;;;6184004;28;20467;-68
2023/04/07 14:44:05;;;;;;;;;;;18.10;49.10;;;;;;6201105;28;19910;-68
2023/04/07 14:47:05;;;;;;;;;;;18.10;49.20;;;;;;6201468;28;19921;-68
2023/04/07 14:50:06;;;;;;;;;;;18.10;49.20;;;;;;6201339;28;19936;-68
2023/04/07 14:53:07;;;;;;;;;;;18.10;48.70;;;;;;6201345;28;19910;-67
2023/04/07 14:56:08;;;;;;;;;;;18.10;49.20;;;;;;6183635;28;19945;-68
2023/04/07 14:59:08;;;;;;;;;;;18.10;49.20;;;;;;6195719;28;20384;-68
2023/04/07 15:02:09;;;;;;;;;;;18.10;49.20;;;;;;6159379;28;19910;-68
2023/04/07 15:05:09;;;;;;;;;;;18.10;49.20;;;;;;6159151;28;20385;-68
2023/04/07 15:08:10;;;;;;;;;;;18.10;49.00;;;;;;6176465;28;20345;-68
2023/04/07 15:11:11;;;;;;;;;;;18.10;49.10;;;;;;6176427;28;19935;-68
2023/04/07 15:14:12;;;;;;;;;;;18.10;49.10;;;;;;6176233;28;19958;-68
2023/04/07 15:17:13;;;;;;;;;;;18.10;48.80;;;;;;6176048;28;19962;-68
2023/04/07 15:20:14;;;;;;;;;;;18.10;49.20;;;;;;6158627;28;19910;-68
2023/04/07 15:23:15;;;;;;;;;;;18.10;49.10;;;;;;6176236;28;19914;-68
2023/04/07 15:26:15;;;;;;;;;;;18.10;49.00;;;;;;6176006;28;19914;-68
2023/04/07 15:29:16;;;;;;;;;;;18.10;49.10;;;;;;6158869;28;20285;-68
2023/04/07 15:32:16;;;;;;;;;;;18.10;49.20;;;;;;6158678;28;19958;-68
2023/04/07 15:35:17;;;;;;;;;;;18.10;49.10;;;;;;6158446;28;20006;-68
2023/04/07 15:38:18;;;;;;;;;;;18.10;49.10;;;;;;6175659;28;19910;-68
2023/04/07 15:41:18;;;;;;;;;;;18.10;48.90;;;;;;6175699;28;19910;-68
2023/04/07 15:44:19;;;;;;;;;;;18.10;49.10;;;;;;6175615;28;19918;-68
2023/04/07 15:47:19;;;;;;;;;;;18.10;49.20;;;;;;6175512;28;19922;-68
2023/04/07 15:50:20;;;;;;;;;;;18.10;49.10;;;;;;6158060;28;20342;-68
2023/04/07 15:53:21;;;;;;;;;;;18.10;49.10;;;;;;6158342;28;20013;-68
2023/04/07 15:56:23;;;;;;;;;;;18.10;49.10;;;;;;6175637;28;19910;-68
2023/04/07 15:59:24;;;;;;;;;;;18.10;49.20;;;;;;6165079;28;20024;-68
2023/04/07 16:02:24;;;;;;;;;;;18.10;49.10;;;;;;6199695;28;20369;-68
2023/04/07 16:05:25;;;;;;;;;;;18.10;49.20;;;;;;6199344;28;20265;-68
2023/04/07 16:08:25;;;;;;;;;;;18.10;49.10;;;;;;6182097;28;19910;-68
2023/04/07 16:11:26;;;;;;;;;;;18.10;49.20;;;;;;6198836;28;19917;-65
2023/04/07 16:14:27;;;;;;;;;;;18.10;49.20;;;;;;6198464;28;19916;-67
2023/04/07 16:17:28;;;;;;;;;;;18.10;49.10;;;;;;6197028;28;19910;-66
2023/04/07 16:20:29;;;;;;;;;;;18.10;49.30;;;;;;6196979;28;19910;-67
2023/04/07 16:23:29;;;;;;;;;;;18.10;49.20;;;;;;6196698;28;20334;-67
2023/04/07 16:26:30;;;;;;;;;;;18.10;49.30;;;;;;6196773;28;19917;-67
2023/04/07 16:29:30;;;;;;;;;;;18.10;49.20;;;;;;6179377;28;19943;-67
2023/04/07 16:32:31;;;;;;;;;;;18.10;49.10;;;;;;6196567;28;20005;-67
2023/04/07 16:35:32;;;;;;;;;;;18.10;49.20;;;;;;6196252;28;19910;-67
2023/04/07 16:38:32;;;;;;;;;;;18.10;49.20;;;;;;6195806;28;20541;-70
2023/04/07 16:41:33;;;;;;;;;;;18.10;49.30;;;;;;6190914;28;20289;-68
2023/04/07 16:44:34;;;;;;;;;;;18.10;49.30;;;;;;6178390;28;19909;-68
2023/04/07 16:47:36;;;;;;;;;;;18.10;49.20;;;;;;6177279;28;19937;-71
2023/04/07 16:50:40;;;;;;;;;;;18.10;48.70;;;;;;6171662;28;20293;-68
2023/04/07 16:53:40;;;;;;;;;;;18.10;48.60;;;;;;6181803;28;19920;-71
2023/04/07 16:56:41;;;;;;;;;;;18.10;48.90;;;;;;6192377;28;20474;-70
2023/04/07 16:59:42;;;;;;;;;;;18.10;49.20;;;;;;6167562;28;19929;-70
2023/04/07 17:02:42;;;;;;;;;;;18.10;48.90;;;;;;6168463;28;19929;-71
2023/04/07 17:05:47;;;;;;;;;;;18.10;49.00;;;;;;6146768;28;19968;-68
2023/04/07 17:08:47;;;;;;;;;;;18.10;49.00;;;;;;6154037;28;19910;-68
2023/04/07 17:11:48;;;;;;;;;;;18.10;49.90;;;;;;6170770;28;20428;-67
2023/04/07 17:14:48;;;;;;;;;;;18.10;49.20;;;;;;6153682;28;19917;-67
2023/04/07 17:17:49;;;;;;;;;;;18.10;49.50;;;;;;6152738;28;19911;-67
2023/04/07 17:20:50;;;;;;;;;;;18.10;48.80;;;;;;6153423;28;19921;-67
2023/04/07 17:23:51;;;;;;;;;;;18.10;48.30;;;;;;6168991;28;19917;-67
2023/04/07 17:26:52;;;;;;;;;;;18.10;48.60;;;;;;6153257;28;20012;-67
2023/04/07 17:29:52;;;;;;;;;;;18.10;48.80;;;;;;6170449;28;20417;-68
2023/04/07 17:32:53;;;;;;;;;;;18.10;49.00;;;;;;6170624;28;19910;-67
2023/04/07 17:35:53;;;;;;;;;;;18.10;49.00;;;;;;6170426;28;20385;-67